Time;durP1;ratioP1;P1;durP2;ratioP2;P2;SDS_P1;SDS_P2;PMS_P1;PMS_P2;Temp;Humidity;BMP_temperature;BMP_pressure;BME280_temperature;BME280_humidity;BME280_pressure;Samples;Min_cycle;Max_cycle;Signal;HPM_P1;HPM_P2
2021/12/21 00:00:49;;;;;;;14.65;5.20;;;;;;;3.49;59.21;102746.00;4997457;28;113787;-66
2021/12/21 00:03:17;;;;;;;13.98;5.47;;;;;;;3.48;59.28;102744.22;5020322;28;124140;-66
2021/12/21 00:05:45;;;;;;;13.10;5.20;;;;;;;3.47;59.27;102747.72;5010065;28;124087;-66
2021/12/21 00:08:13;;;;;;;13.80;5.38;;;;;;;3.45;59.42;102744.19;5012996;28;113276;-66
2021/12/21 00:10:44;;;;;;;13.13;4.85;;;;;;;3.42;59.42;102745.00;4999320;28;114048;-66
2021/12/21 00:16:13;;;;;;;14.00;4.97;;;;;;;3.39;59.44;102738.81;5001413;28;123015;-66
2021/12/21 00:21:40;;;;;;;9.02;4.15;;;;;;;3.34;59.41;102740.53;5012217;28;113194;-66
2021/12/21 00:24:19;;;;;;;12.23;4.35;;;;;;;3.31;59.43;102736.09;5008642;28;124134;-65
2021/12/21 00:26:47;;;;;;;12.27;4.22;;;;;;;3.27;59.75;102743.03;5018900;28;124038;-66
2021/12/21 00:29:14;;;;;;;14.15;4.35;;;;;;;3.25;59.49;102736.88;5013129;28;116022;-66
2021/12/21 00:31:41;;;;;;;10.77;4.90;;;;;;;3.22;59.29;102731.63;5015876;28;115542;-66
2021/12/21 00:34:08;;;;;;;11.57;4.22;;;;;;;3.21;59.45;102729.84;5010922;28;124725;-66
2021/12/21 00:36:38;;;;;;;9.93;4.22;;;;;;;3.21;59.45;102729.84;4993098;28;122978;-66
2021/12/21 00:39:11;;;;;;;11.07;5.15;;;;;;;3.19;59.52;102721.09;5013632;28;114290;-66
2021/12/21 00:41:38;;;;;;;13.05;5.05;;;;;;;3.18;59.30;102729.78;5011601;28;112938;-67
2021/12/21 00:44:06;;;;;;;13.07;4.75;;;;;;;3.18;59.40;102718.44;5011348;28;124244;-66
2021/12/21 00:46:33;;;;;;;13.35;5.18;;;;;;;3.16;59.73;102720.16;5007662;28;124064;-66
2021/12/21 00:49:12;;;;;;;13.35;4.75;;;;;;;3.14;59.55;102717.50;5007832;28;114521;-66
2021/12/21 00:51:43;;;;;;;12.35;4.93;;;;;;;3.12;59.58;102719.22;5007775;28;114130;-65
2021/12/21 00:54:11;;;;;;;15.52;5.25;;;;;;;3.10;59.44;102720.94;5009316;28;124430;-66
2021/12/21 00:56:38;;;;;;;13.82;5.50;;;;;;;3.09;59.38;102719.19;5009936;28;123922;-66
2021/12/21 00:59:05;;;;;;;12.18;5.00;;;;;;;3.07;59.29;102718.25;5013294;28;114280;-66
2021/12/21 01:01:35;;;;;;;12.98;4.75;;;;;;;3.03;59.48;102719.06;5007066;28;114358;-66
2021/12/21 01:04:07;;;;;;;11.32;4.80;;;;;;;2.99;59.12;102722.50;5008587;28;124557;-66
2021/12/21 01:09:11;;;;;;;15.48;5.07;;;;;;;2.96;59.35;102725.03;5006989;28;114883;-65
2021/12/21 01:11:44;;;;;;;13.55;5.60;;;;;;;2.93;59.44;102718.91;5007157;28;114583;-66
2021/12/21 01:17:11;;;;;;;13.13;4.97;;;;;;;2.87;59.37;102713.56;5007116;28;124442;-66
2021/12/21 01:19:43;;;;;;;10.05;4.72;;;;;;;2.84;59.30;102713.50;5005714;28;115351;-66
2021/12/21 01:22:22;;;;;;;12.52;5.10;;;;;;;2.83;59.42;102710.91;5008394;28;115323;-66
2021/12/21 01:25:10;;;;;;;12.00;4.88;;;;;;;2.80;59.29;102716.94;5010635;28;124051;-66
2021/12/21 01:30:22;;;;;;;15.13;4.80;;;;;;;2.77;59.18;102722.13;5009621;28;114893;-66
2021/12/21 01:35:27;;;;;;;16.52;5.30;;;;;;;2.73;59.43;102709.81;5008121;28;124311;-66
2021/12/21 01:51:03;;;;;;;13.60;5.55;;;;;;;2.62;59.39;102719.22;5016826;28;114117;-66
2021/12/21 01:53:30;;;;;;;12.57;5.13;;;;;;;2.60;59.18;102710.47;5009862;28;114075;-66
2021/12/21 01:55:58;;;;;;;13.75;5.00;;;;;;;2.58;59.60;102712.16;5007669;28;124319;-71
2021/12/21 01:58:25;;;;;;;11.82;4.97;;;;;;;2.58;59.52;102701.72;5015280;28;124129;-71
2021/12/21 02:00:54;;;;;;;11.98;4.93;;;;;;;2.58;59.41;102704.31;5015481;28;114218;-71
2021/12/21 02:03:21;;;;;;;16.38;5.43;;;;;;;2.56;59.61;102711.25;5003568;28;114376;-71
2021/12/21 02:05:49;;;;;;;15.48;5.28;;;;;;;2.55;59.44;102705.16;5015972;28;123823;-68
2021/12/21 02:08:16;;;;;;;18.42;5.57;;;;;;;2.55;59.36;102688.59;5011080;28;123762;-68
2021/12/21 02:10:44;;;;;;;13.10;4.88;;;;;;;2.56;59.49;102692.97;5007983;28;115291;-71
2021/12/21 02:13:11;;;;;;;15.65;5.28;;;;;;;2.55;59.41;102691.22;5018854;28;114948;-69
2021/12/21 02:15:38;;;;;;;13.90;5.20;;;;;;;2.55;59.36;102688.59;5009348;28;124417;-68
2021/12/21 02:20:55;;;;;;;15.63;4.88;;;;;;;2.55;59.58;102685.97;5017613;28;114549;-70
2021/12/21 02:23:39;;;;;;;14.55;5.20;;;;;;;2.53;59.47;102686.81;5025785;28;114338;-70
2021/12/21 02:31:09;;;;;;;12.32;5.30;;;;;;;2.51;59.40;102693.75;5018470;28;114671;-70
2021/12/21 02:33:36;;;;;;;13.57;5.63;;;;;;;2.49;59.53;102684.13;5008105;28;111482;-70
2021/12/21 02:36:04;;;;;;;12.48;5.15;;;;;;;2.48;59.31;102688.47;5017948;28;124479;-70
2021/12/21 02:38:32;;;;;;;12.07;5.40;;;;;;;2.48;59.42;102688.47;5015828;28;124716;-70
2021/12/21 02:40:59;;;;;;;13.75;5.57;;;;;;;2.47;59.38;102691.94;5021183;28;114269;-70
2021/12/21 02:43:28;;;;;;;12.68;5.55;;;;;;;2.48;59.42;102678.00;5018917;28;114048;-69
2021/12/21 02:45:55;;;;;;;12.20;5.20;;;;;;;2.47;59.56;102681.50;4999894;28;122888;-70
2021/12/21 02:48:23;;;;;;;13.13;4.80;;;;;;;2.47;59.56;102676.25;5023616;28;124207;-70
2021/12/21 02:50:50;;;;;;;12.25;5.70;;;;;;;2.46;59.40;102677.09;5012662;28;114323;-70
2021/12/21 02:53:17;;;;;;;12.30;5.22;;;;;;;2.46;59.44;102679.72;5014052;28;114865;-69
2021/12/21 02:55:44;;;;;;;12.55;5.00;;;;;;;2.44;59.43;102676.19;5011265;28;123857;-69
2021/12/21 02:58:12;;;;;;;14.80;5.40;;;;;;;2.44;59.54;102678.81;5014797;28;124569;-70
2021/12/21 03:00:40;;;;;;;12.10;5.38;;;;;;;2.44;59.45;102684.03;5010084;28;115215;-69
2021/12/21 03:03:13;;;;;;;17.52;4.68;;;;;;;2.42;59.48;102683.13;5002350;28;114500;-69
2021/12/21 03:05:50;;;;;;;13.45;5.18;;;;;;;2.40;59.24;102674.38;5019541;28;124606;-70
2021/12/21 03:08:22;;;;;;;15.15;4.95;;;;;;;2.39;59.42;102661.28;5018388;28;124168;-70
2021/12/21 03:11:06;;;;;;;12.13;5.20;;;;;;;2.37;59.17;102661.22;5026890;28;114773;-70
2021/12/21 03:14:03;;;;;;;12.30;4.57;;;;;;;2.35;59.38;102665.56;5018198;28;114536;-70
2021/12/21 03:16:34;;;;;;;14.82;5.20;;;;;;;2.32;59.44;102665.53;5013499;28;124726;-70
2021/12/21 03:19:03;;;;;;;10.85;4.90;;;;;;;2.32;59.27;102666.41;5011557;28;124500;-70
2021/12/21 03:21:32;;;;;;;16.35;5.30;;;;;;;2.31;59.36;102668.97;5015925;28;114651;-70
2021/12/21 03:24:00;;;;;;;12.80;5.18;;;;;;;2.30;59.49;102667.22;5017146;28;113867;-69
2021/12/21 03:26:28;;;;;;;13.82;5.38;;;;;;;2.31;59.45;102664.63;5014730;28;124953;-69
2021/12/21 03:28:56;;;;;;;15.25;5.43;;;;;;;2.31;59.34;102663.75;5009807;28;123422;-70
2021/12/21 03:31:23;;;;;;;12.27;5.72;;;;;;;2.31;59.49;102663.75;4996661;28;114385;-69
2021/12/21 03:33:51;;;;;;;13.80;5.20;;;;;;;2.30;59.36;102667.22;5016167;28;114245;-69
2021/12/21 03:36:18;;;;;;;11.20;4.78;;;;;;;2.31;59.44;102674.22;5020247;28;124633;-69
2021/12/21 03:38:54;;;;;;;11.45;5.10;;;;;;;2.30;59.34;102664.63;5014841;28;123971;-69
2021/12/21 03:41:21;;;;;;;16.27;5.22;;;;;;;2.29;59.35;102670.69;5012187;27;114660;-69
2021/12/21 03:43:49;;;;;;;11.48;4.82;;;;;;;2.28;59.46;102668.91;5014057;28;114824;-70
2021/12/21 03:46:16;;;;;;;14.45;5.03;;;;;;;2.27;59.32;102661.94;5011880;28;123881;-70
2021/12/21 03:48:48;;;;;;;11.75;4.60;;;;;;;2.26;59.33;102666.28;5016480;28;123938;-70
2021/12/21 03:51:17;;;;;;;9.23;4.40;;;;;;;2.24;59.19;102656.63;5008980;28;115540;-70
2021/12/21 03:53:45;;;;;;;16.30;5.28;;;;;;;2.22;59.29;102660.97;4993339;28;114031;-70
2021/12/21 03:56:30;;;;;;;12.38;5.10;;;;;;;2.20;59.38;102662.66;5015064;28;124122;-70
2021/12/21 03:58:58;;;;;;;13.03;4.83;;;;;;;2.20;59.38;102665.28;5010251;28;124691;-70
2021/12/21 04:01:25;;;;;;;11.52;4.70;;;;;;;2.17;59.18;102659.97;5009934;28;114677;-70
2021/12/21 04:03:53;;;;;;;10.20;4.50;;;;;;;2.16;59.12;102663.47;5020059;28;114027;-70
2021/12/21 04:06:20;;;;;;;12.30;4.78;;;;;;;2.12;59.30;102655.56;5022827;28;124098;-70
2021/12/21 04:08:47;;;;;;;13.00;4.75;;;;;;;2.11;59.22;102664.25;5012427;28;123623;-70
2021/12/21 04:11:14;;;;;;;11.02;4.43;;;;;;;2.09;59.32;102668.59;5012062;28;114381;-70
2021/12/21 04:13:41;;;;;;;11.45;4.88;;;;;;;2.07;59.25;102664.16;5000219;28;113969;-70
2021/12/21 04:16:09;;;;;;;12.85;5.45;;;;;;;2.06;59.21;102663.28;5017840;28;124400;-70
2021/12/21 04:18:38;;;;;;;13.48;4.90;;;;;;;2.04;59.40;102665.00;5011072;28;124801;-69
2021/12/21 04:21:09;;;;;;;14.52;5.03;;;;;;;2.04;58.88;102665.00;5008615;28;114542;-70
2021/12/21 04:23:38;;;;;;;12.48;5.28;;;;;;;2.04;59.27;102659.75;5014738;28;113891;-70
2021/12/21 04:26:06;;;;;;;16.85;5.88;;;;;;;2.01;59.29;102659.69;5010548;28;124445;-69
2021/12/21 04:28:33;;;;;;;12.30;5.75;;;;;;;2.01;59.14;102654.47;5016257;28;124525;-70
2021/12/21 04:31:01;;;;;;;11.70;5.10;;;;;;;1.99;59.38;102653.56;5001543;28;113400;-69
2021/12/21 04:33:28;;;;;;;13.05;5.15;;;;;;;1.99;59.26;102645.72;5011884;28;113840;-69
2021/12/21 04:35:56;;;;;;;9.82;4.30;;;;;;;1.99;59.36;102644.84;5009354;28;124233;-69
2021/12/21 04:38:29;;;;;;;13.43;5.15;;;;;;;1.99;59.31;102645.72;5013766;28;124258;-69
2021/12/21 04:41:09;;;;;;;11.10;4.80;;;;;;;1.99;59.19;102645.72;5010137;28;115029;-69
2021/12/21 04:43:37;;;;;;;10.57;4.63;;;;;;;1.97;59.33;102647.41;5024752;28;114817;-69
2021/12/21 04:46:05;;;;;;;13.27;4.68;;;;;;;1.96;59.08;102648.28;5014050;28;124055;-69
2021/12/21 04:48:32;;;;;;;11.13;4.90;;;;;;;1.94;59.20;102642.13;5012868;28;124929;-69
2021/12/21 04:51:00;;;;;;;13.25;5.35;;;;;;;1.92;59.38;102644.72;5009398;28;115932;-69
2021/12/21 04:53:27;;;;;;;12.20;5.35;;;;;;;1.92;59.25;102643.81;5024773;27;114070;-69
2021/12/21 04:55:55;;;;;;;15.68;5.60;;;;;;;1.90;59.26;102650.75;5009716;28;124124;-69
2021/12/21 04:58:22;;;;;;;15.40;5.20;;;;;;;1.89;58.94;102643.78;5026459;28;124383;-69
2021/12/21 05:00:50;;;;;;;13.85;5.38;;;;;;;1.87;59.27;102640.25;5018143;28;114841;-69
2021/12/21 05:03:17;;;;;;;14.73;4.82;;;;;;;1.86;59.40;102635.88;5011564;28;113703;-69
2021/12/21 05:05:45;;;;;;;12.05;4.65;;;;;;;1.86;59.32;102638.50;5015043;28;124969;-69
2021/12/21 05:08:26;;;;;;;13.82;5.00;;;;;;;1.86;59.36;102638.50;5001019;28;123742;-69
2021/12/21 05:10:58;;;;;;;13.88;5.50;;;;;;;1.85;59.26;102634.13;5015657;28;114148;-69
2021/12/21 05:13:28;;;;;;;10.77;4.70;;;;;;;1.84;59.49;102634.97;5015385;28;114544;-69
2021/12/21 05:15:56;;;;;;;13.35;5.32;;;;;;;1.83;59.24;102633.19;5003252;28;122916;-69
2021/12/21 05:18:24;;;;;;;14.48;4.63;;;;;;;1.82;59.35;102632.31;5012874;28;123780;-68
2021/12/21 05:20:52;;;;;;;14.60;5.15;;;;;;;1.81;59.32;102634.91;5012995;28;114220;-69
2021/12/21 05:23:19;;;;;;;12.68;5.15;;;;;;;1.81;59.44;102645.34;5010983;28;114426;-69
2021/12/21 05:25:47;;;;;;;14.43;4.97;;;;;;;1.81;59.09;102645.34;5008871;28;124399;-69
2021/12/21 05:28:15;;;;;;;12.65;5.38;;;;;;;1.79;59.27;102647.03;5007535;28;123998;-69
2021/12/21 05:30:43;;;;;;;12.98;5.00;;;;;;;1.78;59.28;102640.06;5010009;28;115908;-69
2021/12/21 05:33:10;;;;;;;13.20;5.28;;;;;;;1.79;59.19;102641.81;5014885;28;114972;-69
2021/12/21 05:35:37;;;;;;;14.35;5.72;;;;;;;1.78;59.35;102640.06;5013262;28;125437;-69
2021/12/21 05:38:07;;;;;;;17.63;5.22;;;;;;;1.78;59.23;102642.69;4993292;28;124441;-69
2021/12/21 05:40:39;;;;;;;10.65;5.00;;;;;;;1.77;59.18;102638.28;5008692;28;114025;-69
2021/12/21 05:43:08;;;;;;;14.80;5.35;;;;;;;1.77;59.25;102643.53;5017543;28;113826;-69
2021/12/21 05:45:37;;;;;;;11.73;5.20;;;;;;;1.75;59.40;102647.00;5010095;28;124315;-69
2021/12/21 05:48:05;;;;;;;15.18;5.38;;;;;;;1.75;59.13;102646.09;5010929;28;125474;-71
2021/12/21 05:50:33;;;;;;;12.02;5.68;;;;;;;1.74;58.97;102654.81;5010147;28;114774;-69
2021/12/21 05:53:00;;;;;;;15.13;5.45;;;;;;;1.72;59.22;102654.75;5021310;28;114124;-69
2021/12/21 05:55:27;;;;;;;11.32;5.10;;;;;;;1.71;59.10;102655.63;5011083;28;123789;-71
2021/12/21 05:57:55;;;;;;;14.68;5.72;;;;;;;1.69;59.05;102652.06;4994374;28;122940;-69
2021/12/21 06:00:26;;;;;;;11.40;5.20;;;;;;;1.67;58.99;102653.78;5009300;28;114786;-71
2021/12/21 06:02:54;;;;;;;16.02;5.47;;;;;;;1.67;59.25;102653.78;5018952;28;113788;-71
2021/12/21 06:05:22;;;;;;;13.63;5.55;;;;;;;1.65;59.08;102649.38;5007960;28;124691;-71
2021/12/21 06:07:52;;;;;;;12.38;5.13;;;;;;;1.63;59.20;102651.97;5013162;28;123884;-71
2021/12/21 06:10:31;;;;;;;12.88;5.43;;;;;;;1.62;59.14;102655.44;5011390;28;114159;-69
2021/12/21 06:26:34;;;;;;;12.85;5.60;;;;;;;1.61;59.23;102653.66;5013739;28;124363;-69
2021/12/21 06:29:02;;;;;;;13.13;5.38;;;;;;;1.63;59.30;102651.97;5017329;28;123211;-69
2021/12/21 06:31:31;;;;;;;12.82;5.45;;;;;;;1.64;59.31;102653.72;4991100;28;114589;-69
2021/12/21 06:33:58;;;;;;;13.07;5.45;;;;;;;1.65;59.42;102646.78;5010093;28;114056;-69
2021/12/21 06:36:25;;;;;;;10.68;4.82;;;;;;;1.66;59.35;102646.81;4995508;28;123270;-70
2021/12/21 06:38:53;;;;;;;10.30;4.68;;;;;;;1.67;59.33;102647.69;5009451;28;125477;-70
2021/12/21 06:41:21;;;;;;;13.77;5.40;;;;;;;1.68;59.30;102645.09;5018569;28;114457;-69
2021/12/21 06:43:48;;;;;;;12.48;4.90;;;;;;;1.68;59.14;102650.34;5013090;28;114619;-69
2021/12/21 06:46:40;;;;;;;13.05;5.25;;;;;;;1.70;59.39;102651.25;5006405;28;123868;-69
2021/12/21 06:51:51;;;;;;;12.80;4.88;;;;;;;1.70;59.51;102653.84;5011926;28;114107;-69
2021/12/21 06:54:20;;;;;;;13.57;5.00;;;;;;;1.71;59.35;102650.41;5015857;28;114140;-70
2021/12/21 06:56:47;;;;;;;16.38;5.47;;;;;;;1.71;59.42;102655.63;5016223;28;124041;-71
2021/12/21 06:59:15;;;;;;;20.88;5.40;;;;;;;1.73;59.36;102659.16;5010549;28;125476;-70
2021/12/21 07:01:43;;;;;;;15.75;5.30;;;;;;;1.73;59.29;102653.94;5006714;27;114101;-70
2021/12/21 07:04:13;;;;;;;8.90;4.80;;;;;;;1.74;59.46;102654.81;5010765;27;115369;-70
2021/12/21 07:06:41;;;;;;;12.15;5.20;;;;;;;1.74;59.22;102645.22;5015844;27;124028;-70
2021/12/21 07:19:36;;;;;;;15.63;5.40;;;;;;;1.74;59.35;102640.00;5019222;28;125166;-70
2021/12/21 07:22:05;;;;;;;11.45;5.10;;;;;;;1.77;59.37;102643.53;5018087;28;114689;-69
2021/12/21 07:24:33;;;;;;;13.32;5.18;;;;;;;1.77;59.49;102648.75;5016680;28;114011;-70
2021/12/21 07:27:00;;;;;;;11.13;5.43;;;;;;;1.79;59.36;102652.28;5016538;28;124391;-69
2021/12/21 07:29:27;;;;;;;12.85;5.50;;;;;;;1.79;59.46;102652.28;5020234;28;124003;-69
2021/12/21 07:31:55;;;;;;;13.80;5.43;;;;;;;1.79;59.49;102662.72;5016846;27;114195;-69
2021/12/21 07:34:22;;;;;;;14.65;5.80;;;;;;;1.79;59.47;102657.50;5016277;28;113064;-69
2021/12/21 07:36:49;;;;;;;13.23;5.55;;;;;;;1.79;59.10;102662.72;5014087;28;123960;-69
2021/12/21 07:39:18;;;;;;;13.38;5.32;;;;;;;1.80;59.29;102659.28;5009563;28;123480;-69
2021/12/21 07:42:05;;;;;;;16.05;5.40;;;;;;;1.80;59.22;102664.50;5021865;28;114271;-69
2021/12/21 07:44:33;;;;;;;13.77;5.40;;;;;;;1.79;59.24;102662.72;5015712;28;113966;-70
2021/12/21 07:47:00;;;;;;;15.55;5.68;;;;;;;1.79;59.27;102662.72;5015366;28;124389;-69
2021/12/21 07:49:27;;;;;;;12.18;5.07;;;;;;;1.80;59.39;102672.34;5014517;28;123975;-68
2021/12/21 07:51:56;;;;;;;17.90;5.90;;;;;;;1.79;59.35;102667.94;4996566;28;113830;-69
2021/12/21 07:54:23;;;;;;;15.15;5.32;;;;;;;1.79;59.40;102674.06;5020902;28;113113;-69
2021/12/21 07:56:50;;;;;;;13.82;5.38;;;;;;;1.79;59.28;102673.16;5021576;27;124030;-71
2021/12/21 07:59:17;;;;;;;12.05;5.50;;;;;;;1.78;59.44;102676.66;5003162;27;124635;-70
2021/12/21 08:01:45;;;;;;;11.40;5.57;;;;;;;1.78;59.35;102677.53;5015269;27;115324;-68
2021/12/21 08:04:12;;;;;;;14.40;5.35;;;;;;;1.78;59.45;102681.88;5016538;27;115319;-68
2021/12/21 08:06:40;;;;;;;15.57;5.32;;;;;;;1.77;59.34;102674.88;5014372;28;123971;-71
2021/12/21 08:09:08;;;;;;;14.45;5.95;;;;;;;1.75;59.41;102678.34;5014360;28;124245;-70
2021/12/21 08:14:04;;;;;;;12.77;5.43;;;;;;;1.77;59.26;102685.31;5018275;28;114244;-69
2021/12/21 08:16:33;;;;;;;12.02;5.07;;;;;;;1.77;59.24;102687.94;5016537;28;123848;-70
2021/12/21 08:19:00;;;;;;;16.17;5.70;;;;;;;1.75;59.12;102678.34;5016128;28;124236;-69
2021/12/21 08:21:28;;;;;;;11.70;5.90;;;;;;;1.77;59.29;102674.88;5015511;28;114739;-70
2021/12/21 08:23:55;;;;;;;12.27;5.28;;;;;;;1.77;59.23;102680.09;5025541;28;114285;-71
2021/12/21 08:26:22;;;;;;;14.90;5.65;;;;;;;1.77;59.40;102674.88;5017391;28;124071;-71
2021/12/21 08:28:49;;;;;;;10.57;5.55;;;;;;;1.78;59.33;102666.19;5016174;27;123656;-63
2021/12/21 08:31:16;;;;;;;14.88;5.70;;;;;;;1.77;59.37;102669.66;5007611;28;114941;-65
2021/12/21 08:33:44;;;;;;;15.10;5.82;;;;;;;1.78;59.48;102671.41;5010346;28;114507;-65
2021/12/21 08:36:11;;;;;;;15.68;5.68;;;;;;;1.78;59.32;102668.81;5016831;28;124611;-65
2021/12/21 08:38:42;;;;;;;12.80;5.40;;;;;;;1.78;59.38;102671.41;5020402;28;124299;-65
2021/12/21 08:41:10;;;;;;;17.25;6.35;;;;;;;1.80;59.37;102674.94;5010904;28;115109;-65
2021/12/21 08:43:37;;;;;;;16.75;5.95;;;;;;;1.79;59.25;102673.16;5010086;28;114539;-65
2021/12/21 08:46:07;;;;;;;18.20;6.45;;;;;;;1.80;59.25;102681.03;5010077;28;122797;-65
2021/12/21 08:48:35;;;;;;;13.95;5.97;;;;;;;1.81;59.29;102680.22;5009151;28;124208;-65
2021/12/21 08:51:04;;;;;;;16.80;6.60;;;;;;;1.83;59.35;102685.44;5010112;28;115906;-66
2021/12/21 08:53:32;;;;;;;20.13;7.00;;;;;;;1.86;59.69;102685.50;5012161;28;115036;-65
2021/12/21 08:56:00;;;;;;;18.85;6.80;;;;;;;1.88;59.39;102684.69;5009071;28;124825;-65
2021/12/21 08:58:27;;;;;;;16.50;6.38;;;;;;;1.91;59.07;102689.13;5009666;28;123803;-65
2021/12/21 09:00:54;;;;;;;18.58;6.57;;;;;;;1.92;59.50;102696.09;5017205;28;114942;-65
2021/12/21 09:03:23;;;;;;;15.82;6.53;;;;;;;1.92;59.57;102690.84;5018356;28;113673;-65
2021/12/21 09:05:52;;;;;;;15.60;6.63;;;;;;;1.92;59.68;102685.63;5023813;28;124261;-65
2021/12/21 09:08:19;;;;;;;17.67;7.13;;;;;;;1.96;59.71;102687.47;5025390;28;124242;-66
2021/12/21 09:10:48;;;;;;;16.73;7.40;;;;;;;1.98;59.64;102696.22;5022789;28;114409;-66
2021/12/21 09:13:15;;;;;;;15.73;7.05;;;;;;;2.02;59.80;102695.44;5022590;28;113626;-65
2021/12/21 09:15:44;;;;;;;16.13;7.28;;;;;;;2.05;59.92;102699.84;5018148;28;124490;-66
2021/12/21 09:18:11;;;;;;;19.80;7.28;;;;;;;2.07;59.67;102701.66;5022593;28;125984;-66
2021/12/21 09:20:38;;;;;;;14.65;6.30;;;;;;;2.10;59.90;102712.16;5015217;28;114916;-65
2021/12/21 09:23:06;;;;;;;17.75;6.30;;;;;;;2.14;59.86;102700.03;5018180;28;114445;-64
2021/12/21 09:25:33;;;;;;;18.10;6.88;;;;;;;2.19;60.14;102702.75;5001400;28;123944;-64
2021/12/21 09:28:00;;;;;;;15.70;6.95;;;;;;;2.25;60.02;102706.34;5009497;28;123971;-64
2021/12/21 09:30:28;;;;;;;16.40;7.10;;;;;;;2.31;60.14;102700.34;4996662;27;113647;-64
2021/12/21 09:32:57;;;;;;;16.77;6.72;;;;;;;2.34;59.93;102703.03;5017832;28;114237;-64
2021/12/21 09:35:26;;;;;;;15.73;7.32;;;;;;;2.38;60.23;102697.00;5002555;28;123804;-63
2021/12/21 09:37:54;;;;;;;17.58;7.15;;;;;;;2.44;60.27;102701.47;5014902;28;123906;-64
2021/12/21 09:40:25;;;;;;;22.90;7.82;;;;;;;2.46;60.12;102695.41;5009854;28;115723;-64
2021/12/21 09:42:53;;;;;;;15.90;7.38;;;;;;;2.50;60.44;102701.56;5006596;28;114092;-64
2021/12/21 09:45:20;;;;;;;17.00;7.22;;;;;;;2.57;60.37;102697.34;5009565;28;124107;-65
2021/12/21 09:47:51;;;;;;;18.05;7.30;;;;;;;2.61;60.24;102689.56;5018385;28;124131;-64
2021/12/21 09:50:21;;;;;;;20.20;8.07;;;;;;;2.66;60.46;102689.66;4986871;28;113558;-64
2021/12/21 09:52:49;;;;;;;18.50;7.78;;;;;;;2.71;60.40;102690.59;4997457;27;113747;-64
2021/12/21 09:55:18;;;;;;;13.13;6.75;;;;;;;2.77;60.47;102684.59;4997751;28;122449;-64
2021/12/21 09:57:49;;;;;;;20.92;8.10;;;;;;;2.82;60.59;102686.44;5014483;27;123403;-64
2021/12/21 10:00:25;;;;;;;21.92;8.05;;;;;;;2.87;60.54;102687.41;5017563;27;114695;-64
2021/12/21 10:02:52;;;;;;;17.38;8.07;;;;;;;2.95;60.75;102684.03;5018172;27;114076;-64
2021/12/21 10:05:21;;;;;;;16.98;7.50;;;;;;;3.02;60.72;102685.91;5005943;28;124872;-64
2021/12/21 10:08:21;;;;;;;20.42;7.95;;;;;;;3.10;60.59;102684.28;5002422;28;124129;-63
2021/12/21 10:10:51;;;;;;;21.45;8.00;;;;;;;3.15;60.60;102680.00;4984097;28;114085;-63
2021/12/21 10:13:21;;;;;;;21.10;7.50;;;;;;;3.21;60.55;102682.72;5018414;28;114001;-64
2021/12/21 10:15:55;;;;;;;24.40;8.98;;;;;;;3.27;60.66;102677.56;5019229;28;123851;-64
2021/12/21 10:18:32;;;;;;;18.95;8.23;;;;;;;3.34;60.66;102661.97;5013474;28;124455;-64
2021/12/21 10:21:03;;;;;;;23.13;8.77;;;;;;;3.40;60.52;102662.03;5009861;28;114670;-64
2021/12/21 10:23:39;;;;;;;18.67;8.65;;;;;;;3.46;60.65;102655.13;5007509;28;114268;-64
2021/12/21 10:26:10;;;;;;;21.52;8.98;;;;;;;3.52;60.74;102662.19;5017573;28;124328;-66
2021/12/21 10:28:39;;;;;;;22.55;9.18;;;;;;;3.57;60.58;102655.28;5006035;28;123879;-65
2021/12/21 10:31:12;;;;;;;20.13;9.05;;;;;;;3.62;60.56;102643.13;5023505;28;115268;-66
2021/12/21 10:33:44;;;;;;;19.65;9.07;;;;;;;3.69;60.58;102638.81;5027895;28;114749;-66
2021/12/21 10:36:12;;;;;;;21.90;8.93;;;;;;;3.76;60.52;102639.81;5009821;28;123842;-66
2021/12/21 10:38:49;;;;;;;20.83;9.55;;;;;;;3.83;60.71;102636.41;5028577;28;123763;-66
2021/12/21 10:41:21;;;;;;;19.98;9.10;;;;;;;3.91;60.59;102639.97;5021002;28;114520;-66
2021/12/21 10:44:04;;;;;;;21.33;9.57;;;;;;;3.98;60.76;102643.56;5007961;28;114058;-65
2021/12/21 10:46:35;;;;;;;21.35;9.05;;;;;;;4.04;60.84;102641.88;5012260;28;123915;-65
2021/12/21 10:49:21;;;;;;;21.75;8.88;;;;;;;4.10;60.61;102641.94;5012024;28;122723;-65
2021/12/21 10:51:57;;;;;;;22.95;9.52;;;;;;;4.16;60.47;102646.34;5011348;28;114773;-65
2021/12/21 10:54:42;;;;;;;26.77;9.13;;;;;;;4.22;60.60;102640.31;5013329;28;115332;-65
2021/12/21 10:57:16;;;;;;;20.33;8.43;;;;;;;4.31;60.73;102648.25;5030481;28;124255;-66
2021/12/21 10:59:48;;;;;;;21.73;9.52;;;;;;;4.37;60.58;102644.81;5015191;28;123332;-67
2021/12/21 11:02:21;;;;;;;25.48;8.90;;;;;;;4.42;60.44;102651.88;5014615;28;113988;-67
2021/12/21 11:04:54;;;;;;;20.38;9.02;;;;;;;4.47;60.54;102652.81;5012464;28;113546;-66
2021/12/21 11:09:58;;;;;;;22.38;9.40;;;;;;;4.59;60.37;102635.41;5011828;28;123880;-66
2021/12/21 11:12:28;;;;;;;23.73;8.98;;;;;;;4.64;60.25;102638.97;5023845;27;114244;-67
2021/12/21 11:14:57;;;;;;;22.98;8.85;;;;;;;4.68;60.48;102641.63;5012778;28;113124;-67
2021/12/21 11:17:25;;;;;;;24.40;8.95;;;;;;;4.72;60.28;102632.03;5030782;28;124314;-68
2021/12/21 11:19:53;;;;;;;19.63;8.18;;;;;;;4.78;60.33;102637.31;5015323;28;122882;-68
2021/12/21 11:22:22;;;;;;;21.15;8.85;;;;;;;4.80;60.33;102625.13;5032301;28;115222;-70
2021/12/21 11:24:50;;;;;;;22.13;9.65;;;;;;;4.85;60.44;102623.38;5034001;28;115219;-68
2021/12/21 11:27:19;;;;;;;19.58;8.43;;;;;;;4.91;60.40;102616.44;5030591;28;124558;-67
2021/12/21 11:29:47;;;;;;;21.33;8.73;;;;;;;4.96;60.33;102609.47;5003559;28;122654;-68
2021/12/21 11:32:15;;;;;;;21.92;8.43;;;;;;;5.02;60.18;102604.25;5003104;28;113151;-67
2021/12/21 11:35:08;;;;;;;16.88;7.20;;;;;;;5.06;60.07;102598.16;5031428;28;115005;-67
2021/12/21 11:37:33;;;;;;;18.23;7.60;;;;;;;5.12;60.18;102595.53;5033457;28;124374;-67
2021/12/21 11:40:03;;;;;;;20.42;7.85;;;;;;;5.16;60.16;102586.84;5023927;28;123976;-67
2021/12/21 11:42:38;;;;;;;15.40;7.32;;;;;;;5.21;59.90;102589.47;5032383;28;114353;-67
2021/12/21 11:45:30;;;;;;;20.97;7.63;;;;;;;5.26;60.15;102577.25;4999120;28;113577;-67
2021/12/21 11:48:10;;;;;;;20.40;7.78;;;;;;;5.33;60.21;102578.16;4994215;28;124362;-67
2021/12/21 11:50:43;;;;;;;17.27;7.38;;;;;;;5.39;59.95;102578.19;5017302;28;124436;-67
2021/12/21 11:53:14;;;;;;;14.70;7.32;;;;;;;5.43;59.81;102585.22;5000064;28;113259;-68
2021/12/21 11:55:45;;;;;;;19.75;7.30;;;;;;;5.47;59.56;102581.72;5016527;28;113925;-67
2021/12/21 11:58:21;;;;;;;18.27;7.65;;;;;;;5.51;60.04;102586.13;5010565;28;123956;-68
2021/12/21 12:01:14;;;;;;;;;;;;;;;5.55;59.71;102590.50;5017130;27;123454;-67
2021/12/21 12:04:00;;;;;;;17.13;7.18;;;;;;;5.61;59.70;102585.31;5015989;27;114795;-67
2021/12/21 12:06:28;;;;;;;;;;;;;;;5.64;59.76;102590.53;5019784;27;114376;-67
2021/12/21 12:09:04;;;;;;;17.35;7.20;;;;;;;5.71;59.87;102585.31;5017516;27;124392;-67
2021/12/21 12:11:39;;;;;;;16.10;6.70;;;;;;;5.75;59.67;102571.31;5017182;28;124351;-68
2021/12/21 12:14:09;;;;;;;17.90;6.85;;;;;;;5.81;59.78;102573.97;5015133;28;115159;-68
2021/12/21 12:16:51;;;;;;;18.38;7.35;;;;;;;5.86;59.90;102564.34;5015087;27;115173;-68
2021/12/21 12:19:21;;;;;;;21.23;7.65;;;;;;;5.92;59.75;102564.34;5019825;27;125126;-68
2021/12/21 12:22:02;;;;;;;16.80;7.05;;;;;;;5.98;59.48;102568.78;5019423;27;124241;-68
2021/12/21 12:24:39;;;;;;;19.13;7.88;;;;;;;6.04;59.49;102564.38;5018626;27;114662;-67
2021/12/21 12:27:21;;;;;;;14.52;6.80;;;;;;;6.11;59.38;102569.66;5022944;28;114478;-67
2021/12/21 12:29:49;;;;;;;15.68;7.65;;;;;;;6.16;59.25;102562.63;5014028;28;123993;-67
2021/12/21 12:32:32;;;;;;;14.52;6.85;;;;;;;6.23;59.45;102564.41;5031102;28;123741;-67
2021/12/21 12:35:12;;;;;;;15.10;6.93;;;;;;;6.27;59.24;102560.91;5030141;28;114511;-67
2021/12/21 12:38:03;;;;;;;15.93;7.68;;;;;;;6.31;59.28;102557.41;5029974;28;114474;-67
2021/12/21 12:40:39;;;;;;;15.40;6.78;;;;;;;6.36;58.97;102555.63;5028831;28;123753;-67